Time;durP1;ratioP1;P1;durP2;ratioP2;P2;SDS_P1;SDS_P2;PMS_P1;PMS_P2;Temp;Humidity;BMP_temperature;BMP_pressure;BME280_temperature;BME280_humidity;BME280_pressure;Samples;Min_cycle;Max_cycle;Signal;HPM_P1;HPM_P2
2022/01/11 00:01:28;;;;;;;6.93;4.65;;;3.50;94.30;;;3.18;100.00;100356.22;5015366;28;20195;-67
2022/01/11 00:03:54;;;;;;;8.20;5.97;;;3.60;94.30;;;2.96;100.00;100318.56;5031990;28;20200;-67
2022/01/11 00:06:34;;;;;;;6.63;5.55;;;3.60;94.30;;;3.11;100.00;100354.72;5015027;28;20724;-67
2022/01/11 00:09:07;;;;;;;7.63;5.30;;;3.60;94.30;;;3.11;100.00;100352.16;5033932;28;20188;-68
2022/01/11 00:11:33;;;;;;;6.63;5.20;;;3.60;94.30;;;2.92;100.00;100324.59;5016671;28;20176;-67
2022/01/11 00:13:59;;;;;;;7.70;5.72;;;3.60;94.20;;;2.94;100.00;100317.75;5032043;28;20184;-67
2022/01/11 00:16:25;;;;;;;8.23;6.18;;;3.50;94.20;;;3.18;100.00;100361.31;5032570;28;20339;-67
2022/01/11 00:18:50;;;;;;;7.05;5.55;;;3.60;94.30;;;3.12;100.00;100359.78;5032820;28;20192;-68
2022/01/11 00:21:16;;;;;;;7.88;4.97;;;3.60;94.30;;;3.15;100.00;100362.22;5032568;28;20203;-67
2022/01/11 00:26:08;;;;;;;6.47;5.03;;;3.60;94.30;;;3.05;100.00;100346.34;5015021;28;20218;-67
2022/01/11 00:28:34;;;;;;;7.28;5.18;;;3.60;94.30;;;3.17;100.00;100345.19;5031606;28;20192;-68
2022/01/11 00:31:02;;;;;;;7.43;5.28;;;3.60;94.40;;;3.26;100.00;100351.75;5032829;28;20203;-68
2022/01/11 00:33:37;;;;;;;7.70;5.35;;;3.60;94.50;;;3.23;100.00;100352.66;5031204;28;20283;-68
2022/01/11 00:36:06;;;;;;;7.38;5.05;;;3.60;94.50;;;3.05;100.00;100345.50;5031755;28;20200;-68
2022/01/11 00:38:37;;;;;;;6.60;4.65;;;3.60;94.50;;;3.13;100.00;100343.59;5031657;28;20188;-67
2022/01/11 00:41:09;;;;;;;6.20;5.30;;;3.60;94.40;;;3.20;100.00;100365.53;5015230;28;20197;-67
2022/01/11 00:43:36;;;;;;;7.80;5.03;;;3.60;94.40;;;2.92;100.00;100362.00;5015189;28;20216;-67
2022/01/11 00:46:02;;;;;;;8.15;5.13;;;3.50;94.20;;;2.90;100.00;100362.03;5031393;28;20204;-67
2022/01/11 00:48:28;;;;;;;6.47;5.68;;;3.50;94.10;;;2.46;100.00;100285.88;5015581;28;20649;-67
2022/01/11 00:50:54;;;;;;;9.00;5.97;;;3.50;94.10;;;2.92;100.00;100365.38;5036342;28;20184;-68
2022/01/11 00:53:20;;;;;;;7.05;5.22;;;3.50;94.00;;;2.85;100.00;100318.00;5018808;28;20188;-67
2022/01/11 00:55:47;;;;;;;7.95;5.25;;;3.50;93.90;;;2.60;100.00;100278.72;5018658;28;20199;-68
2022/01/11 00:58:14;;;;;;;8.85;5.80;;;3.50;94.00;;;3.12;100.00;100352.13;5034931;28;20641;-67
2022/01/11 01:00:40;;;;;;;9.10;6.00;;;3.50;94.00;;;2.82;100.00;100310.41;5018730;28;20210;-67
2022/01/11 01:03:06;;;;;;;7.63;5.43;;;3.50;94.10;;;2.99;100.00;100353.31;5036113;28;20193;-67
2022/01/11 01:05:32;;;;;;;8.95;5.55;;;3.50;94.10;;;2.77;100.00;100321.63;5034619;28;20236;-67
2022/01/11 01:07:59;;;;;;;6.63;5.05;;;3.50;94.10;;;3.13;100.00;100365.72;5035154;28;20201;-67
2022/01/11 01:10:40;;;;;;;7.00;4.93;;;3.50;94.10;;;2.80;100.00;100321.53;5035882;28;20661;-67
2022/01/11 01:13:13;;;;;;;5.72;4.70;;;3.50;94.10;;;3.09;100.00;100364.94;5036096;28;20546;-68
2022/01/11 01:15:39;;;;;;;6.75;4.93;;;3.50;94.10;;;3.13;100.00;100363.97;5019146;28;20545;-67
2022/01/11 01:18:05;;;;;;;6.68;5.32;;;3.50;94.20;;;3.08;100.00;100359.88;5034895;28;20200;-67
2022/01/11 01:20:31;;;;;;;5.22;4.30;;;3.60;94.30;;;3.15;100.00;100372.44;5034660;28;20291;-68
2022/01/11 01:22:57;;;;;;;6.50;5.35;;;3.60;94.30;;;3.14;100.00;100367.38;5034908;28;20684;-68
2022/01/11 01:25:23;;;;;;;8.25;5.40;;;3.60;94.30;;;3.15;100.00;100377.53;5018078;28;20197;-67
2022/01/11 01:27:50;;;;;;;5.63;4.70;;;3.60;94.30;;;3.05;100.00;100364.19;5018058;28;20243;-67
2022/01/11 01:30:17;;;;;;;7.82;4.45;;;3.60;94.30;;;2.96;100.00;100348.31;5018212;28;20295;-67
2022/01/11 01:32:44;;;;;;;9.05;5.65;;;3.50;94.30;;;3.13;100.00;100386.94;5035935;28;20189;-67
2022/01/11 01:35:11;;;;;;;8.23;6.03;;;3.60;94.70;;;3.00;100.00;100380.47;5017719;28;20730;-65
2022/01/11 01:37:37;;;;;;;6.50;5.40;;;3.50;94.30;;;3.08;100.00;100391.31;5034471;28;20184;-68
2022/01/11 01:40:05;;;;;;;6.07;4.55;;;3.60;94.30;;;3.19;100.00;100385.94;5035627;28;20185;-68
2022/01/11 01:42:31;;;;;;;8.18;5.30;;;3.50;94.30;;;3.19;100.00;100386.78;5018230;28;20205;-67
2022/01/11 01:45:03;;;;;;;7.13;5.38;;;3.60;94.40;;;3.06;100.00;100376.06;5034540;28;20192;-67
2022/01/11 01:47:29;;;;;;;7.80;5.68;;;3.60;94.40;;;3.08;100.00;100380.28;5034187;28;20212;-67
2022/01/11 01:49:56;;;;;;;7.25;5.20;;;3.60;94.40;;;3.06;100.00;100391.34;5017740;28;20192;-67
2022/01/11 01:52:22;;;;;;;6.00;5.40;;;3.60;94.40;;;3.06;100.00;100388.81;5035514;28;20684;-67
2022/01/11 01:54:49;;;;;;;7.00;5.18;;;3.50;94.30;;;3.06;100.00;100403.25;5017765;28;20203;-67
2022/01/11 01:57:14;;;;;;;7.63;5.78;;;3.50;94.40;;;2.75;100.00;100344.56;5034948;28;20533;-67
2022/01/11 01:59:40;;;;;;;5.45;4.82;;;3.50;94.50;;;3.11;100.00;100400.63;4984999;28;20192;-67
2022/01/11 02:02:09;;;;;;;5.43;4.63;;;3.50;94.50;;;3.14;100.00;100401.34;5034151;28;20188;-67
2022/01/11 02:04:35;;;;;;;8.07;5.32;;;3.60;94.60;;;3.08;100.00;100393.88;5017476;28;20249;-67
2022/01/11 02:07:01;;;;;;;8.32;5.57;;;3.50;94.60;;;2.92;100.00;100359.44;5034605;28;20589;-67
2022/01/11 02:09:27;;;;;;;6.65;5.20;;;3.50;94.70;;;2.92;100.00;100359.44;5017390;28;20192;-66
2022/01/11 02:11:53;;;;;;;7.38;5.45;;;3.60;94.80;;;3.18;100.00;100397.03;5034010;28;20189;-67
2022/01/11 02:14:18;;;;;;;7.53;5.28;;;3.60;94.80;;;2.66;100.00;100315.06;5033516;28;20287;-67
2022/01/11 02:16:44;;;;;;;5.82;5.10;;;3.60;94.80;;;3.13;100.00;100397.13;5033919;28;20238;-67
2022/01/11 02:19:10;;;;;;;8.75;6.00;;;3.60;94.80;;;3.19;100.00;100401.25;5034812;28;20548;-67
2022/01/11 02:21:38;;;;;;;7.20;4.63;;;3.60;94.90;;;3.11;100.00;100391.25;5016877;28;20195;-67
2022/01/11 02:24:05;;;;;;;9.50;5.32;;;3.60;94.80;;;3.18;100.00;100390.22;5001076;28;20195;-67
2022/01/11 02:26:31;;;;;;;7.25;5.47;;;3.70;94.80;;;3.19;100.00;100393.59;5016471;28;20719;-68
2022/01/11 02:28:57;;;;;;;6.85;5.22;;;3.70;94.60;;;3.15;100.00;100399.66;5033569;28;20184;-67
2022/01/11 02:31:23;;;;;;;8.30;4.88;;;3.60;94.50;;;3.09;100.00;100402.34;5034452;28;20199;-67
2022/01/11 02:33:51;;;;;;;8.35;5.93;;;3.60;94.60;;;3.14;100.00;100398.81;5034638;28;20188;-67
2022/01/11 02:36:32;;;;;;;9.35;6.55;;;3.60;94.70;;;2.92;100.00;100367.09;5016827;28;20215;-67
2022/01/11 02:38:58;;;;;;;7.30;4.80;;;3.60;94.80;;;2.81;100.00;100346.97;5018257;28;20202;-67
2022/01/11 02:41:27;;;;;;;9.63;5.82;;;3.50;94.90;;;3.12;100.00;100395.47;5034343;28;20188;-67
2022/01/11 02:43:53;;;;;;;9.10;6.13;;;3.50;95.00;;;3.19;100.00;100396.16;5034460;28;20192;-67
2022/01/11 02:46:21;;;;;;;10.13;6.00;;;3.60;95.10;;;2.85;100.00;100345.19;5016481;28;20212;-67
2022/01/11 02:48:55;;;;;;;7.00;4.72;;;3.60;95.20;;;3.14;100.00;100398.81;5033283;28;20180;-68
2022/01/11 02:51:22;;;;;;;5.85;4.85;;;3.50;95.20;;;3.15;100.00;100387.72;5032739;28;20187;-67
2022/01/11 02:53:49;;;;;;;9.63;6.40;;;3.60;95.20;;;3.04;100.00;100374.44;5017095;28;20196;-67
2022/01/11 02:56:16;;;;;;;8.55;6.78;;;3.60;95.30;;;3.23;100.00;100400.28;5034070;28;20180;-66
2022/01/11 02:58:42;;;;;;;8.02;6.18;;;3.70;95.40;;;3.21;100.00;100397.75;5033107;28;20196;-67
2022/01/11 03:01:09;;;;;;;8.23;6.95;;;3.60;95.20;;;3.17;100.00;100396.19;5032809;28;20243;-67
2022/01/11 03:03:35;;;;;;;11.13;7.63;;;3.60;95.20;;;3.16;100.00;100391.13;5016326;28;20206;-67
2022/01/11 03:06:02;;;;;;;15.23;9.27;;;3.60;95.20;;;3.15;100.00;100395.38;5032542;28;20435;-67
2022/01/11 03:08:42;;;;;;;7.82;6.35;;;3.60;95.20;;;2.91;100.00;100347.56;5016427;28;20197;-67
2022/01/11 03:11:09;;;;;;;8.80;6.03;;;3.60;95.30;;;3.19;100.00;100402.09;5033282;28;20191;-67
2022/01/11 03:13:35;;;;;;;9.15;5.88;;;3.70;95.40;;;2.75;100.00;100333.53;5032280;28;20199;-67
2022/01/11 03:16:02;;;;;;;7.78;6.07;;;3.60;95.30;;;3.06;100.00;100385.41;5032572;28;20200;-67
2022/01/11 03:18:28;;;;;;;7.15;5.10;;;3.60;95.30;;;3.05;100.00;100391.38;5032134;28;20561;-67
2022/01/11 03:20:54;;;;;;;7.57;5.63;;;3.60;95.40;;;3.10;100.00;100393.84;5032047;28;20212;-67
2022/01/11 03:23:20;;;;;;;8.10;5.65;;;3.60;95.40;;;3.16;100.00;100404.72;5015660;28;20195;-67
2022/01/11 03:25:47;;;;;;;8.45;5.53;;;3.60;95.50;;;2.93;100.00;100361.13;5016238;28;20278;-67
2022/01/11 03:28:13;;;;;;;8.60;6.25;;;3.60;95.50;;;3.09;100.00;100393.00;5032424;28;20254;-67
2022/01/11 03:30:39;;;;;;;8.13;5.32;;;3.60;95.60;;;2.82;100.00;100332.50;5033373;28;20672;-67
2022/01/11 03:33:08;;;;;;;9.85;6.72;;;3.60;95.60;;;2.97;100.00;100350.78;5032023;28;20287;-67
2022/01/11 03:35:35;;;;;;;12.05;6.20;;;3.60;95.70;;;2.90;100.00;100345.91;5033614;28;20189;-67
2022/01/11 03:38:01;;;;;;;8.30;6.35;;;3.60;95.60;;;3.14;100.00;100385.22;5016050;28;20275;-67
2022/01/11 03:40:27;;;;;;;12.05;6.60;;;3.60;95.60;;;2.82;100.00;100352.91;5031846;28;20199;-67
2022/01/11 03:42:53;;;;;;;9.13;6.20;;;3.60;95.50;;;2.71;100.00;100358.28;5015575;28;20196;-68
2022/01/11 03:45:21;;;;;;;6.78;5.07;;;3.60;95.50;;;2.42;100.00;100369.16;5032046;28;20185;-66
2022/01/11 03:47:49;;;;;;;6.75;4.95;;;3.60;95.30;;;2.65;100.00;100360.97;5031919;28;20278;-67
2022/01/11 03:50:15;;;;;;;5.40;4.38;;;3.50;95.00;;;2.86;100.00;100380.00;5015907;28;20239;-67
2022/01/11 03:52:42;;;;;;;5.60;4.47;;;3.50;95.00;;;2.68;100.00;100361.72;5032220;28;20664;-67
2022/01/11 03:55:13;;;;;;;5.82;4.85;;;3.50;95.10;;;2.82;100.00;100408.97;5015772;28;20188;-67
2022/01/11 03:57:40;;;;;;;5.60;4.65;;;3.50;95.20;;;2.74;100.00;100367.53;5032818;28;20199;-67
2022/01/11 04:00:13;;;;;;;5.65;4.38;;;3.50;95.10;;;2.78;100.00;100381.91;5031813;28;20548;-67
2022/01/11 04:02:40;;;;;;;6.93;5.00;;;3.50;95.20;;;2.87;100.00;100438.59;5015328;28;20270;-67
2022/01/11 04:05:06;;;;;;;7.07;5.28;;;3.50;95.10;;;2.59;100.00;100377.25;5032752;28;20180;-67
2022/01/11 04:07:32;;;;;;;7.80;5.55;;;3.40;95.00;;;2.89;100.00;100430.88;5015162;28;20227;-67
2022/01/11 04:09:58;;;;;;;5.97;4.60;;;3.40;94.90;;;2.91;100.00;100419.78;5033028;28;20551;-67
2022/01/11 04:12:24;;;;;;;5.45;4.88;;;3.40;95.00;;;2.72;100.00;100403.25;5015129;28;20233;-67
2022/01/11 04:14:50;;;;;;;8.65;5.85;;;3.40;95.00;;;3.09;100.00;100438.88;5031881;28;20196;-67
2022/01/11 04:17:16;;;;;;;9.93;6.78;;;3.40;95.10;;;2.96;100.00;100412.88;5032849;28;20190;-67
2022/01/11 04:19:42;;;;;;;11.60;8.48;;;3.50;95.20;;;2.91;100.00;100429.13;5032626;28;20215;-67
2022/01/11 04:22:08;;;;;;;9.50;6.78;;;3.50;95.30;;;2.98;100.00;100428.09;5032234;28;20641;-67
2022/01/11 04:24:34;;;;;;;9.52;6.07;;;3.50;95.30;;;2.75;100.00;100384.50;5035672;28;20526;-67
2022/01/11 04:27:00;;;;;;;8.75;6.13;;;3.50;95.30;;;3.01;100.00;100433.97;5002879;28;20568;-67
2022/01/11 04:29:26;;;;;;;7.82;6.00;;;3.50;95.40;;;3.10;100.00;100439.72;5036742;28;20694;-67
2022/01/11 04:31:52;;;;;;;10.23;6.28;;;3.50;95.40;;;3.09;100.00;100445.69;5002924;28;20195;-67
2022/01/11 04:34:17;;;;;;;8.45;6.15;;;3.50;95.40;;;2.79;100.00;100401.41;5035532;28;20192;-67
2022/01/11 04:36:44;;;;;;;7.70;5.68;;;3.50;95.50;;;2.87;100.00;100397.81;5035325;28;20200;-67
2022/01/11 04:39:11;;;;;;;7.90;5.57;;;3.50;95.50;;;3.14;100.00;100449.78;5019392;28;20189;-67
2022/01/11 04:41:37;;;;;;;8.55;5.78;;;3.50;95.60;;;3.23;100.00;100443.63;5018907;28;20184;-67
2022/01/11 04:44:04;;;;;;;7.47;5.72;;;3.60;95.60;;;3.09;100.00;100438.88;5018990;28;20631;-67
2022/01/11 04:46:30;;;;;;;6.40;5.53;;;3.60;95.30;;;3.12;100.00;100443.94;5018794;28;20218;-67
2022/01/11 04:48:56;;;;;;;6.00;4.82;;;3.60;95.10;;;3.08;100.00;100437.22;5035522;28;20687;-67
2022/01/11 04:51:24;;;;;;;7.68;5.57;;;3.50;95.20;;;3.12;100.00;100443.94;5018886;28;20199;-66
2022/01/11 04:53:50;;;;;;;8.95;5.18;;;3.60;95.30;;;3.11;100.00;100454.16;5035241;28;20184;-67
2022/01/11 04:56:16;;;;;;;6.78;5.15;;;3.60;95.30;;;2.77;100.00;100396.34;5036200;28;20193;-67
2022/01/11 04:58:42;;;;;;;6.70;5.18;;;3.50;95.20;;;2.99;100.00;100453.56;5036153;28;20192;-67
2022/01/11 05:01:08;;;;;;;7.40;5.40;;;3.50;95.20;;;2.96;100.00;100447.72;5036504;28;20192;-67
2022/01/11 05:03:34;;;;;;;7.95;5.63;;;3.40;95.30;;;2.72;100.00;100422.81;5035980;28;20192;-67
2022/01/11 05:06:00;;;;;;;6.57;5.32;;;3.40;95.50;;;2.79;100.00;100432.84;5034841;28;20239;-67
2022/01/11 05:08:26;;;;;;;7.10;5.47;;;3.30;95.60;;;3.01;100.00;100461.19;5018382;28;20319;-67
2022/01/11 05:10:52;;;;;;;8.38;5.68;;;3.40;95.90;;;3.07;100.00;100458.47;5036246;28;20196;-67
2022/01/11 05:13:18;;;;;;;6.95;5.07;;;3.40;96.00;;;2.78;100.00;100415.03;5036163;28;20195;-67
2022/01/11 05:15:45;;;;;;;6.57;5.07;;;3.50;96.10;;;3.12;100.00;100463.47;5018034;28;20699;-67
2022/01/11 05:18:11;;;;;;;8.15;5.57;;;3.50;96.00;;;3.04;100.00;100461.13;5034823;28;20224;-67
2022/01/11 05:20:38;;;;;;;7.30;4.78;;;3.50;95.90;;;3.01;100.00;100458.63;5018436;28;20192;-67
2022/01/11 05:23:04;;;;;;;7.53;5.15;;;3.40;95.90;;;2.75;100.00;100422.72;5034555;28;20641;-67
2022/01/11 05:25:31;;;;;;;7.82;5.65;;;3.40;95.90;;;2.88;100.00;100434.31;5017864;28;20184;-67
2022/01/11 05:27:59;;;;;;;9.00;5.68;;;3.40;96.00;;;2.63;100.00;100404.34;5035654;28;20216;-67
2022/01/11 05:30:25;;;;;;;7.85;5.60;;;3.40;96.10;;;2.92;100.00;100462.25;5018231;28;20192;-66
2022/01/11 05:32:52;;;;;;;6.70;5.85;;;3.40;96.10;;;2.94;100.00;100457.09;5018578;28;20243;-67
2022/01/11 05:35:19;;;;;;;7.05;5.45;;;3.40;96.20;;;2.89;100.00;100467.41;5017369;28;20191;-67
2022/01/11 05:37:45;;;;;;;7.05;5.25;;;3.40;96.20;;;2.71;100.00;100432.19;5017999;28;20548;-67
2022/01/11 05:40:11;;;;;;;6.78;5.60;;;3.40;96.20;;;2.96;100.00;100468.97;5034222;28;20189;-67
2022/01/11 05:42:38;;;;;;;7.05;5.30;;;3.40;96.30;;;2.94;100.00;100475.78;5035361;28;20188;-67
2022/01/11 05:45:06;;;;;;;8.82;5.82;;;3.40;96.30;;;2.96;100.00;100478.31;5034100;28;20246;-67
2022/01/11 05:47:32;;;;;;;8.63;5.63;;;3.40;96.30;;;2.98;100.00;100481.63;5033920;28;20251;-67
2022/01/11 05:50:00;;;;;;;7.68;5.45;;;3.50;96.40;;;2.99;100.00;100480.78;5035320;28;20208;-67
2022/01/11 05:52:26;;;;;;;8.93;5.72;;;3.40;96.40;;;3.05;100.00;100488.25;5033793;28;20195;-66
2022/01/11 05:54:52;;;;;;;8.93;5.82;;;3.50;96.40;;;3.11;100.00;100493.25;5034194;28;20189;-67
2022/01/11 05:57:17;;;;;;;8.32;5.50;;;3.60;96.20;;;2.68;100.00;100432.25;5034155;28;20219;-67
2022/01/11 05:59:43;;;;;;;8.05;4.82;;;3.50;95.90;;;3.03;100.00;100497.69;5033999;28;20188;-67
2022/01/11 06:02:09;;;;;;;6.55;5.10;;;3.40;95.70;;;3.05;100.00;100503.56;5034163;28;20554;-67
2022/01/11 06:04:35;;;;;;;7.43;5.13;;;3.40;95.80;;;2.75;100.00;100461.78;5033750;28;20188;-66
2022/01/11 06:07:01;;;;;;;7.68;5.60;;;3.40;95.90;;;2.94;100.00;100505.53;5017065;28;20239;-67
2022/01/11 06:09:28;;;;;;;8.70;6.35;;;3.40;96.00;;;2.99;100.00;100513.91;5017386;28;20654;-66
2022/01/11 06:11:55;;;;;;;7.45;5.38;;;3.40;96.20;;;2.90;100.00;100499.66;5035088;28;20199;-67
2022/01/11 06:14:21;;;;;;;6.45;4.95;;;3.40;96.30;;;2.93;100.00;100503.88;5034911;28;20223;-67
2022/01/11 06:16:47;;;;;;;10.77;6.28;;;3.40;96.40;;;2.96;100.00;100509.75;5017238;28;20196;-67
2022/01/11 06:19:13;;;;;;;8.95;6.85;;;3.40;96.50;;;3.03;100.00;100516.38;5017197;28;20642;-67
2022/01/11 06:21:39;;;;;;;7.82;5.93;;;3.40;96.50;;;2.93;100.00;100504.69;5034489;28;20197;-67
2022/01/11 06:24:05;;;;;;;7.32;5.63;;;3.40;96.40;;;2.93;100.00;100522.53;5033769;28;20553;-67
2022/01/11 06:26:31;;;;;;;7.53;5.80;;;3.40;96.40;;;2.95;100.00;100525.06;5016914;28;20244;-67
2022/01/11 06:28:57;;;;;;;9.43;6.30;;;3.40;96.50;;;2.99;100.00;100526.66;5001006;28;20330;-67
2022/01/11 06:31:24;;;;;;;9.82;5.65;;;3.40;96.50;;;2.99;100.00;100529.22;5033167;28;20569;-67
2022/01/11 06:33:50;;;;;;;6.80;6.00;;;3.40;96.50;;;2.93;100.00;100524.25;5034588;28;20195;-67
2022/01/11 06:36:15;;;;;;;8.90;5.93;;;3.40;96.50;;;2.77;100.00;100528.88;5035011;28;20196;-67
2022/01/11 06:38:42;;;;;;;9.30;6.15;;;3.30;96.50;;;2.91;100.00;100528.53;5032968;28;20196;-67
2022/01/11 06:41:09;;;;;;;8.88;5.90;;;3.30;96.60;;;2.63;100.00;100482.47;5017023;28;20184;-67
2022/01/11 06:43:36;;;;;;;9.95;6.43;;;3.30;96.70;;;2.96;100.00;100534.41;5016853;28;20193;-67
2022/01/11 06:46:02;;;;;;;8.80;5.70;;;3.40;96.90;;;2.93;100.00;100537.00;5031980;28;20206;-67
2022/01/11 06:48:28;;;;;;;9.50;6.88;;;3.40;96.90;;;2.61;100.00;100487.59;5000141;28;20603;-66
2022/01/11 06:50:54;;;;;;;8.70;6.05;;;3.40;96.90;;;2.70;100.00;100480.63;5016715;28;20294;-67
2022/01/11 06:53:20;;;;;;;7.72;5.20;;;3.40;96.90;;;2.99;100.00;100542.78;5016716;28;20646;-67
2022/01/11 06:55:46;;;;;;;8.02;6.43;;;3.40;96.90;;;3.04;100.00;100547.81;5032698;28;20196;-67
2022/01/11 06:58:13;;;;;;;8.10;5.55;;;3.40;96.80;;;2.93;100.00;100524.25;5016418;28;20211;-67
2022/01/11 07:00:39;;;;;;;9.23;5.80;;;3.50;96.70;;;2.65;100.00;100484.09;5016579;28;20192;-67
2022/01/11 07:03:05;;;;;;;8.82;6.45;;;3.40;96.60;;;3.01;100.00;100546.16;5016415;28;20210;-67
2022/01/11 07:05:31;;;;;;;9.32;6.38;;;3.40;96.60;;;3.10;100.00;100551.91;5033519;28;20669;-67
2022/01/11 07:07:57;;;;;;;9.07;6.68;;;3.40;96.50;;;3.07;100.00;100555.34;5032753;28;20242;-67
2022/01/11 07:10:23;;;;;;;9.18;6.18;;;3.40;96.50;;;3.00;100.00;100562.31;5033809;28;20188;-67
2022/01/11 07:12:49;;;;;;;8.85;5.70;;;3.30;96.40;;;3.00;100.00;100558.94;5032221;28;20216;-67
2022/01/11 07:15:15;;;;;;;9.75;5.75;;;3.30;96.50;;;2.91;100.00;100561.69;5033689;28;20193;-67
2022/01/11 07:17:42;;;;;;;10.13;6.18;;;3.30;96.70;;;3.02;100.00;100565.69;5033667;28;20192;-67
2022/01/11 07:20:09;;;;;;;7.78;5.85;;;3.30;96.80;;;3.10;100.00;100573.16;5032287;28;20196;-67
2022/01/11 07:22:37;;;;;;;7.28;5.57;;;3.40;97.00;;;3.05;100.00;100575.78;5016314;28;20188;-67
2022/01/11 07:25:05;;;;;;;9.98;6.25;;;3.40;97.00;;;3.15;100.00;100583.22;5032456;28;20219;-67
2022/01/11 07:27:33;;;;;;;7.20;6.18;;;3.50;97.00;;;3.12;100.00;100589.25;5033346;28;20219;-64
2022/01/11 07:30:03;;;;;;;10.32;5.50;;;3.50;97.00;;;3.10;100.00;100583.34;5032595;28;20196;-67
2022/01/11 07:32:31;;;;;;;6.88;5.22;;;3.50;96.90;;;3.08;100.00;100582.53;5032376;28;20208;-67
2022/01/11 07:34:58;;;;;;;10.60;6.43;;;3.40;96.80;;;3.04;100.00;100596.25;5032109;28;20189;-67
2022/01/11 07:37:24;;;;;;;8.48;5.88;;;3.40;96.80;;;2.92;100.00;100566.75;5033374;28;20326;-67
2022/01/11 07:39:50;;;;;;;9.70;6.55;;;3.40;96.90;;;2.81;100.00;100563.59;5032038;28;20223;-67
2022/01/11 07:42:16;;;;;;;10.45;7.05;;;3.40;97.00;;;2.95;100.00;100586.25;5032168;28;20601;-67
2022/01/11 07:44:48;;;;;;;8.63;5.93;;;3.40;97.10;;;3.00;100.00;100598.00;5031751;28;20548;-67
2022/01/11 07:47:13;;;;;;;9.93;7.03;;;3.40;97.20;;;3.08;100.00;100586.78;5033148;28;20696;-67
2022/01/11 07:49:39;;;;;;;10.13;6.03;;;3.50;97.40;;;3.11;100.00;100596.94;5031825;28;20188;-67
2022/01/11 07:52:06;;;;;;;10.70;6.40;;;3.50;97.40;;;2.84;100.00;100553.34;5031888;28;20177;-67
2022/01/11 07:54:31;;;;;;;11.52;6.88;;;3.50;97.50;;;3.22;100.00;100600.06;5032190;28;20226;-67
2022/01/11 07:56:57;;;;;;;7.80;5.32;;;3.60;97.50;;;3.23;100.00;100601.75;5031678;28;20559;-66
2022/01/11 07:59:23;;;;;;;10.80;5.85;;;3.60;97.20;;;3.26;100.00;100597.44;4999043;28;20192;-67
2022/01/11 08:01:49;;;;;;;11.05;6.13;;;3.60;97.10;;;3.24;100.00;100599.16;5031161;28;20203;-66
2022/01/11 08:04:15;;;;;;;9.75;6.15;;;3.70;97.20;;;2.98;100.00;100555.56;5030741;28;20578;-66
2022/01/11 08:06:41;;;;;;;8.82;5.80;;;3.70;97.20;;;3.36;100.00;100608.25;5032244;28;20615;-74
2022/01/11 08:09:08;;;;;;;8.50;5.70;;;3.70;97.10;;;3.38;100.00;100616.69;5031806;28;20255;-75
2022/01/11 08:11:34;;;;;;;8.98;5.85;;;3.80;97.00;;;3.31;100.00;100615.16;5032279;28;20200;-71
2022/01/11 08:14:00;;;;;;;9.82;6.80;;;3.80;96.90;;;3.32;100.00;100614.28;5015087;28;20192;-75
2022/01/11 08:16:26;;;;;;;8.23;6.18;;;3.80;96.90;;;3.46;100.00;100607.16;5031681;28;20219;-75
2022/01/11 08:18:52;;;;;;;8.10;6.10;;;3.90;96.90;;;3.32;100.00;100581.13;5015274;28;20192;-74
2022/01/11 08:21:18;;;;;;;10.55;6.72;;;3.90;96.70;;;3.26;100.00;100571.94;5031783;28;20243;-75
2022/01/11 08:23:44;;;;;;;8.95;6.40;;;3.90;96.60;;;3.61;100.00;100623.84;5032478;28;20538;-74
2022/01/11 08:26:09;;;;;;;8.70;6.03;;;4.00;96.70;;;3.48;100.00;100617.31;5015084;28;20195;-74
2022/01/11 08:28:35;;;;;;;10.77;7.13;;;4.00;96.60;;;3.50;100.00;100630.88;5014304;28;20456;-74
2022/01/11 08:31:01;;;;;;;9.23;6.22;;;3.90;96.50;;;3.68;100.00;100638.13;5028437;28;20679;-74
2022/01/11 08:33:27;;;;;;;8.80;6.05;;;4.00;96.60;;;3.35;100.00;100599.78;5032454;28;20284;-70
2022/01/11 08:35:53;;;;;;;9.57;6.45;;;4.00;96.60;;;3.54;100.00;100614.66;5014937;28;20192;-73
2022/01/11 08:38:19;;;;;;;10.02;6.55;;;4.10;96.70;;;3.65;100.00;100636.47;5031516;28;20275;-75
2022/01/11 08:40:45;;;;;;;8.02;6.03;;;4.10;96.60;;;3.69;100.00;100627.88;5031450;28;20189;-73
2022/01/11 08:43:11;;;;;;;7.35;5.55;;;4.00;96.40;;;3.20;100.00;100556.78;5015098;28;20200;-79
2022/01/11 08:45:37;;;;;;;7.28;5.97;;;4.10;96.40;;;3.69;100.00;100647.47;5032778;28;20193;-71
2022/01/11 08:48:04;;;;;;;7.93;6.85;;;4.10;96.30;;;3.74;100.00;100650.72;5014822;28;20212;-76
2022/01/11 08:50:30;;;;;;;9.50;6.18;;;4.00;96.60;;;3.76;100.00;100646.44;5032579;28;20188;-74
2022/01/11 08:52:57;;;;;;;9.05;5.60;;;4.10;96.50;;;3.73;100.00;100646.50;5031131;28;20235;-73
2022/01/11 08:55:23;;;;;;;11.35;6.07;;;4.10;96.50;;;3.75;100.00;100643.03;5031728;28;20193;-72
2022/01/11 08:57:50;;;;;;;8.15;5.70;;;4.20;96.60;;;3.77;100.00;100653.22;5030700;28;20715;-75
2022/01/11 09:00:19;;;;;;;9.13;7.05;;;4.20;96.70;;;3.81;100.00;100650.53;5032377;28;20547;-72
2022/01/11 09:02:46;;;;;;;7.05;5.18;;;4.20;96.70;;;3.84;100.00;100641.97;5015303;28;20195;-70
2022/01/11 09:05:12;;;;;;;6.28;5.63;;;4.30;96.70;;;4.00;100.00;100645.81;5031186;28;20242;-73
2022/01/11 09:07:38;;;;;;;8.13;5.97;;;4.40;96.60;;;3.94;100.00;100652.81;5031006;28;20232;-73
2022/01/11 09:10:05;;;;;;;7.15;6.00;;;4.30;96.30;;;3.94;100.00;100645.97;5034116;28;20675;-68
2022/01/11 09:12:31;;;;;;;7.95;5.85;;;4.40;96.20;;;3.87;100.00;100629.13;5034677;28;20657;-69
2022/01/11 09:14:57;;;;;;;8.95;5.70;;;4.40;96.10;;;3.90;100.00;100648.63;5034785;28;20284;-70
2022/01/11 09:17:23;;;;;;;9.80;6.05;;;4.40;96.10;;;4.00;100.00;100663.69;5035086;28;20204;-71
2022/01/11 09:19:49;;;;;;;6.88;5.68;;;4.40;96.20;;;3.97;100.00;100666.31;5035918;28;20188;-77
2022/01/11 09:22:15;;;;;;;10.27;6.43;;;4.40;96.30;;;4.06;100.00;100665.25;5036195;28;20196;-77
2022/01/11 09:24:41;;;;;;;9.25;6.35;;;4.50;96.50;;;4.13;100.00;100638.69;5034794;28;20208;-72
2022/01/11 09:27:07;;;;;;;6.30;4.80;;;4.60;96.60;;;4.29;100.00;100665.50;5034519;28;20208;-79
2022/01/11 09:29:36;;;;;;;6.00;4.65;;;4.70;96.30;;;4.20;100.00;100661.47;5034906;28;20375;-75
2022/01/11 09:32:04;;;;;;;9.18;6.40;;;4.70;96.10;;;4.30;100.00;100656.97;5018529;28;20275;-73
2022/01/11 09:34:30;;;;;;;6.78;5.05;;;4.70;95.90;;;4.33;100.00;100667.09;5034557;28;20189;-73
2022/01/11 09:40:23;;;;;;;7.63;5.38;;;4.80;95.90;;;4.07;100.00;100636.28;5035726;28;20196;-69
2022/01/11 09:42:49;;;;;;;10.02;5.55;;;4.80;96.00;;;4.38;100.00;100672.09;5035295;28;20649;-70
2022/01/11 09:45:15;;;;;;;9.50;5.68;;;4.80;96.10;;;4.37;100.00;100675.50;5018079;28;20188;-72
2022/01/11 09:47:41;;;;;;;7.38;5.25;;;4.80;95.90;;;4.38;100.00;100677.19;5033976;28;20699;-67
2022/01/11 09:50:09;;;;;;;8.02;5.55;;;4.90;96.00;;;3.94;100.00;100583.88;5034201;28;20553;-69
2022/01/11 09:52:36;;;;;;;9.02;6.20;;;4.90;96.10;;;4.28;100.00;100627.25;5001813;28;20196;-70
2022/01/11 09:55:03;;;;;;;7.00;5.60;;;5.00;96.10;;;4.28;100.00;100617.88;5017763;28;20184;-73
2022/01/11 09:57:29;;;;;;;6.03;4.50;;;5.00;96.00;;;4.57;100.00;100671.56;5034073;28;20263;-78
2022/01/11 09:59:55;;;;;;;8.50;5.65;;;5.10;96.00;;;4.56;100.00;100667.31;5017347;28;20196;-69
2022/01/11 10:02:21;;;;;;;8.75;6.05;;;5.10;96.00;;;4.63;100.00;100678.22;5035104;28;20189;-77
2022/01/11 10:04:47;;;;;;;7.20;5.45;;;5.20;96.00;;;4.69;100.00;100670.41;5016978;28;20200;-71
2022/01/11 10:07:13;;;;;;;8.43;5.28;;;5.20;96.00;;;4.71;100.00;100635.38;5017086;28;20239;-70
2022/01/11 10:09:49;;;;;;;8.05;5.45;;;5.40;95.70;;;5.02;100.00;100678.84;5034092;28;20180;-76
2022/01/11 10:12:16;;;;;;;8.02;5.60;;;5.50;95.10;;;4.82;100.00;100676.00;5018086;28;20180;-69
2022/01/11 10:14:51;;;;;;;8.65;5.30;;;5.50;95.00;;;4.96;100.00;100687.50;5017162;28;20189;-68
2022/01/11 10:17:24;;;;;;;6.43;5.18;;;5.50;95.10;;;5.02;100.00;100662.66;5033522;28;20279;-68
2022/01/11 10:20:06;;;;;;;8.82;5.95;;;5.60;95.30;;;4.88;100.00;100640.03;5034633;28;20180;-71
2022/01/11 10:22:33;;;;;;;8.48;5.45;;;5.70;95.20;;;4.74;100.00;100627.66;5034877;28;20180;-74